Boston, MA - BOS

Welcome to Boston

Boston Logan International Airport is home to American Airline's morst Northeastern Crew Base. Logan provides an easy connection between many cities in the Northeastern United States to all of the other hubs in the AAG system as well as a few select international destinations. American Airlines makes up just under 20% of the passenger share out of BOS.

BOS Based Pilots: 35   Miles to BOS: 96843
Flights from BOS: 170   Total Hours: 597.45
Routes using BOS: 474   From BOS: 336.29
Total Miles: 204684   Hours To BOS: 261.16
Miles from BOS: 107841   BOS Charts: Click Here
VATSIM METAR: KBOS 012154Z 27008KT 10SM FEW050 FEW250 06/M04 A3012 RMK AO2 SLP199 T00611039
 
         
View More: Click Here
   

 

Like what you see and ready to join the team?

A rewarding and memorable virtual airline experience awaits!